sensor_id;sensor_type;location;lat;lon;timestamp;pressure;altitude;pressure_sealevel;temperature;humidity
70730;BME280;58315;53.336;55.932;2022-12-13T00:02:14;101617.59;;;-7.47;44.32
70730;BME280;58315;53.336;55.932;2022-12-13T00:04:40;101615.91;;;-7.47;44.37
70730;BME280;58315;53.336;55.932;2022-12-13T00:07:06;101618.50;;;-7.45;44.43
70730;BME280;58315;53.336;55.932;2022-12-13T00:09:50;101611.50;;;-7.54;44.50
70730;BME280;58315;53.336;55.932;2022-12-13T00:12:16;101618.34;;;-7.55;44.61
70730;BME280;58315;53.336;55.932;2022-12-13T00:14:42;101614.91;;;-7.55;44.78
70730;BME280;58315;53.336;55.932;2022-12-13T00:17:08;101608.88;;;-7.59;44.93
70730;BME280;58315;53.336;55.932;2022-12-13T00:19:34;101610.53;;;-7.62;45.03
70730;BME280;58315;53.336;55.932;2022-12-13T00:22:00;101612.28;;;-7.58;45.09
70730;BME280;58315;53.336;55.932;2022-12-13T00:24:26;101616.50;;;-7.63;44.87
70730;BME280;58315;53.336;55.932;2022-12-13T00:26:53;101618.34;;;-7.56;44.57
70730;BME280;58315;53.336;55.932;2022-12-13T00:29:20;101615.59;;;-7.65;44.44
70730;BME280;58315;53.336;55.932;2022-12-13T00:31:46;101619.81;;;-7.70;44.92
70730;BME280;58315;53.336;55.932;2022-12-13T00:34:12;101614.72;;;-7.67;44.88
70730;BME280;58315;53.336;55.932;2022-12-13T00:36:38;101610.41;;;-7.68;44.95
70730;BME280;58315;53.336;55.932;2022-12-13T00:39:03;101613.03;;;-7.65;44.96
70730;BME280;58315;53.336;55.932;2022-12-13T00:41:32;101619.88;;;-7.64;44.93
70730;BME280;58315;53.336;55.932;2022-12-13T00:43:59;101623.16;;;-7.74;45.17
70730;BME280;58315;53.336;55.932;2022-12-13T00:46:26;101613.03;;;-7.65;45.16
70730;BME280;58315;53.336;55.932;2022-12-13T00:48:55;101624.25;;;-7.60;44.90
70730;BME280;58315;53.336;55.932;2022-12-13T00:51:22;101615.50;;;-7.71;44.87
70730;BME280;58315;53.336;55.932;2022-12-13T00:53:48;101624.81;;;-7.77;44.70
70730;BME280;58315;53.336;55.932;2022-12-13T00:56:19;101616.38;;;-7.69;44.80
70730;BME280;58315;53.336;55.932;2022-12-13T00:58:47;101618.13;;;-7.68;44.89
70730;BME280;58315;53.336;55.932;2022-12-13T01:01:16;101615.66;;;-7.64;44.94
70730;BME280;58315;53.336;55.932;2022-12-13T01:03:43;101620.78;;;-7.64;44.39
70730;BME280;58315;53.336;55.932;2022-12-13T01:06:11;101613.09;;;-7.62;44.69
70730;BME280;58315;53.336;55.932;2022-12-13T01:08:38;101618.16;;;-7.65;44.74
70730;BME280;58315;53.336;55.932;2022-12-13T01:11:05;101614.72;;;-7.67;44.55
70730;BME280;58315;53.336;55.932;2022-12-13T01:13:31;101624.16;;;-7.65;44.89
70730;BME280;58315;53.336;55.932;2022-12-13T01:15:57;101624.09;;;-7.69;44.50
70730;BME280;58315;53.336;55.932;2022-12-13T01:18:23;101635.03;;;-7.81;44.54
70730;BME280;58315;53.336;55.932;2022-12-13T01:20:57;101627.44;;;-7.73;44.87
70730;BME280;58315;53.336;55.932;2022-12-13T01:23:24;101633.38;;;-7.78;44.83
70730;BME280;58315;53.336;55.932;2022-12-13T01:25:51;101636.81;;;-7.77;44.62
70730;BME280;58315;53.336;55.932;2022-12-13T01:28:17;101626.41;;;-7.85;44.86
70730;BME280;58315;53.336;55.932;2022-12-13T01:30:43;101630.56;;;-7.90;44.74
70730;BME280;58315;53.336;55.932;2022-12-13T01:33:09;101634.84;;;-7.90;44.96
70730;BME280;58315;53.336;55.932;2022-12-13T01:35:35;101637.41;;;-7.92;45.10
70730;BME280;58315;53.336;55.932;2022-12-13T01:38:01;101639.97;;;-7.90;44.95
70730;BME280;58315;53.336;55.932;2022-12-13T01:40:27;101645.94;;;-7.93;44.95
70730;BME280;58315;53.336;55.932;2022-12-13T01:42:53;101651.88;;;-7.94;44.76
70730;BME280;58315;53.336;55.932;2022-12-13T01:45:24;101647.59;;;-7.95;44.91
70730;BME280;58315;53.336;55.932;2022-12-13T01:47:55;101654.53;;;-7.91;45.09
70730;BME280;58315;53.336;55.932;2022-12-13T01:50:33;101656.28;;;-7.87;45.02
70730;BME280;58315;53.336;55.932;2022-12-13T01:52:59;101651.88;;;-7.95;44.89
70730;BME280;58315;53.336;55.932;2022-12-13T01:55:28;101650.16;;;-7.95;44.82
70730;BME280;58315;53.336;55.932;2022-12-13T01:57:56;101645.13;;;-7.90;44.93
70730;BME280;58315;53.336;55.932;2022-12-13T02:00:25;101648.19;;;-8.10;45.23
70730;BME280;58315;53.336;55.932;2022-12-13T02:02:52;101651.56;;;-8.12;45.56
70730;BME280;58315;53.336;55.932;2022-12-13T02:05:27;101660.31;;;-8.01;45.23
70730;BME280;58315;53.336;55.932;2022-12-13T02:07:57;101651.84;;;-7.97;45.17
70730;BME280;58315;53.336;55.932;2022-12-13T02:10:25;101660.44;;;-7.95;45.09
70730;BME280;58315;53.336;55.932;2022-12-13T02:12:52;101660.31;;;-8.01;44.91
70730;BME280;58315;53.336;55.932;2022-12-13T02:15:19;101661.03;;;-8.08;44.88
70730;BME280;58315;53.336;55.932;2022-12-13T02:18:21;101658.66;;;-7.99;44.65
70730;BME280;58315;53.336;55.932;2022-12-13T02:21:44;101651.06;;;-7.93;44.69
70730;BME280;58315;53.336;55.932;2022-12-13T02:26:55;101657.75;;;-8.01;44.56
70730;BME280;58315;53.336;55.932;2022-12-13T02:34:53;101671.41;;;-8.04;44.81
70730;BME280;58315;53.336;55.932;2022-12-13T02:40:00;101657.59;;;-8.09;44.99
70730;BME280;58315;53.336;55.932;2022-12-13T02:42:37;101656.88;;;-8.03;44.65
70730;BME280;58315;53.336;55.932;2022-12-13T02:45:10;101654.22;;;-8.08;44.69
70730;BME280;58315;53.336;55.932;2022-12-13T02:47:41;101651.56;;;-8.12;44.59
70730;BME280;58315;53.336;55.932;2022-12-13T02:50:10;101653.19;;;-8.17;44.38
70730;BME280;58315;53.336;55.932;2022-12-13T02:52:38;101660.72;;;-8.25;44.71
70730;BME280;58315;53.336;55.932;2022-12-13T02:55:11;101658.25;;;-8.20;44.56
70730;BME280;58315;53.336;55.932;2022-12-13T02:57:41;101658.09;;;-8.27;44.63
70730;BME280;58315;53.336;55.932;2022-12-13T03:06:06;101654.13;;;-8.56;44.93
70730;BME280;58315;53.336;55.932;2022-12-13T03:17:42;101650.69;;;-8.58;45.61
70730;BME280;58315;53.336;55.932;2022-12-13T03:20:09;101673.22;;;-8.42;45.25
70730;BME280;58315;53.336;55.932;2022-12-13T03:22:35;101663.03;;;-8.39;44.90
70730;BME280;58315;53.336;55.932;2022-12-13T03:25:01;101674.09;;;-8.41;44.96
70730;BME280;58315;53.336;55.932;2022-12-13T03:27:29;101670.56;;;-8.46;44.86
70730;BME280;58315;53.336;55.932;2022-12-13T03:29:55;101671.44;;;-8.46;44.90
70730;BME280;58315;53.336;55.932;2022-12-13T03:32:22;101669.81;;;-8.42;44.65
70730;BME280;58315;53.336;55.932;2022-12-13T03:34:48;101673.22;;;-8.42;45.02
70730;BME280;58315;53.336;55.932;2022-12-13T03:37:14;101667.16;;;-8.47;44.70
70730;BME280;58315;53.336;55.932;2022-12-13T03:39:42;101661.81;;;-8.56;44.84
70730;BME280;58315;53.336;55.932;2022-12-13T03:42:08;101674.56;;;-8.61;44.99
70730;BME280;58315;53.336;55.932;2022-12-13T03:44:34;101676.03;;;-8.70;45.06
70730;BME280;58315;53.336;55.932;2022-12-13T03:47:00;101683.47;;;-8.83;45.45
70730;BME280;58315;53.336;55.932;2022-12-13T03:49:25;101680.97;;;-8.80;45.46
70730;BME280;58315;53.336;55.932;2022-12-13T03:51:51;101688.84;;;-8.72;45.53
70730;BME280;58315;53.336;55.932;2022-12-13T03:54:17;101681.25;;;-8.67;45.33
70730;BME280;58315;53.336;55.932;2022-12-13T03:56:43;101680.47;;;-8.63;45.26
70730;BME280;58315;53.336;55.932;2022-12-13T03:59:09;101683.81;;;-8.67;45.13
70730;BME280;58315;53.336;55.932;2022-12-13T04:01:35;101681.06;;;-8.77;45.04
70730;BME280;58315;53.336;55.932;2022-12-13T04:04:01;101685.00;;;-8.91;45.13
70730;BME280;58315;53.336;55.932;2022-12-13T04:06:27;101695.94;;;-8.98;45.09
70730;BME280;58315;53.336;55.932;2022-12-13T04:08:53;101692.16;;;-9.14;45.18
70730;BME280;58315;53.336;55.932;2022-12-13T04:11:19;101701.75;;;-9.05;45.47
70730;BME280;58315;53.336;55.932;2022-12-13T04:14:04;101693.28;;;-9.03;45.20
70730;BME280;58315;53.336;55.932;2022-12-13T04:16:30;101706.00;;;-9.06;45.42
70730;BME280;58315;53.336;55.932;2022-12-13T04:18:56;101694.78;;;-9.11;45.50
70730;BME280;58315;53.336;55.932;2022-12-13T04:21:22;101691.16;;;-9.20;45.56
70730;BME280;58315;53.336;55.932;2022-12-13T04:23:48;101691.06;;;-9.24;45.58
70730;BME280;58315;53.336;55.932;2022-12-13T04:26:14;101693.78;;;-9.17;45.71
70730;BME280;58315;53.336;55.932;2022-12-13T04:28:40;101702.28;;;-9.18;45.76
70730;BME280;58315;53.336;55.932;2022-12-13T04:31:06;101699.63;;;-9.22;45.60
70730;BME280;58315;53.336;55.932;2022-12-13T04:33:32;101708.00;;;-9.29;46.09
70730;BME280;58315;53.336;55.932;2022-12-13T04:35:58;101707.41;;;-9.18;45.92
70730;BME280;58315;53.336;55.932;2022-12-13T04:38:24;101708.34;;;-9.15;45.58
70730;BME280;58315;53.336;55.932;2022-12-13T04:40:50;101708.41;;;-9.13;45.43
70730;BME280;58315;53.336;55.932;2022-12-13T04:43:16;101719.69;;;-9.05;46.10
70730;BME280;58315;53.336;55.932;2022-12-13T04:45:42;101719.75;;;-9.02;45.96
70730;BME280;58315;53.336;55.932;2022-12-13T04:48:08;101713.22;;;-8.89;45.62
70730;BME280;58315;53.336;55.932;2022-12-13T04:50:34;101713.47;;;-8.79;45.51
70730;BME280;58315;53.336;55.932;2022-12-13T04:53:00;101714.31;;;-8.78;45.53
70730;BME280;58315;53.336;55.932;2022-12-13T04:55:26;101709.88;;;-8.85;45.51
70730;BME280;58315;53.336;55.932;2022-12-13T04:57:52;101709.09;;;-8.83;45.67
70730;BME280;58315;53.336;55.932;2022-12-13T05:00:18;101712.28;;;-8.93;45.25
70730;BME280;58315;53.336;55.932;2022-12-13T05:02:47;101715.69;;;-8.94;45.76
70730;BME280;58315;53.336;55.932;2022-12-13T05:05:13;101707.06;;;-8.98;45.19
70730;BME280;58315;53.336;55.932;2022-12-13T05:07:39;101715.25;;;-9.12;45.90
70730;BME280;58315;53.336;55.932;2022-12-13T05:10:05;101719.69;;;-9.05;45.49
70730;BME280;58315;53.336;55.932;2022-12-13T05:12:31;101716.28;;;-9.04;45.80
70730;BME280;58315;53.336;55.932;2022-12-13T05:14:57;101720.00;;;-8.91;45.58
70730;BME280;58315;53.336;55.932;2022-12-13T05:17:23;101725.91;;;-8.94;45.93
70730;BME280;58315;53.336;55.932;2022-12-13T05:19:49;101711.47;;;-8.92;45.68
70730;BME280;58315;53.336;55.932;2022-12-13T05:22:15;101724.56;;;-8.78;45.61
70730;BME280;58315;53.336;55.932;2022-12-13T05:24:42;101723.94;;;-8.69;45.91
70730;BME280;58315;53.336;55.932;2022-12-13T05:27:09;101720.69;;;-8.62;45.70
70730;BME280;58315;53.336;55.932;2022-12-13T05:29:35;101720.91;;;-8.52;45.47
70730;BME280;58315;53.336;55.932;2022-12-13T05:32:01;101722.00;;;-8.40;45.35
70730;BME280;58315;53.336;55.932;2022-12-13T05:34:27;101718.75;;;-8.30;45.48
70730;BME280;58315;53.336;55.932;2022-12-13T05:36:53;101718.19;;;-8.15;45.36
70730;BME280;58315;53.336;55.932;2022-12-13T05:39:19;101721.88;;;-8.03;45.00
70730;BME280;58315;53.336;55.932;2022-12-13T05:41:45;101723.81;;;-7.91;45.13
70730;BME280;58315;53.336;55.932;2022-12-13T05:44:11;101724.94;;;-7.77;44.96
70730;BME280;58315;53.336;55.932;2022-12-13T05:46:38;101726.84;;;-7.66;44.07
70730;BME280;58315;53.336;55.932;2022-12-13T05:49:04;101731.00;;;-7.71;44.51
70730;BME280;58315;53.336;55.932;2022-12-13T05:51:30;101740.38;;;-7.75;44.41
70730;BME280;58315;53.336;55.932;2022-12-13T05:53:56;101737.91;;;-7.69;44.27
70730;BME280;58315;53.336;55.932;2022-12-13T05:56:22;101734.41;;;-7.72;44.53
70730;BME280;58315;53.336;55.932;2022-12-13T05:58:48;101732.84;;;-7.64;44.34
70730;BME280;58315;53.336;55.932;2022-12-13T06:01:14;101742.25;;;-7.65;44.42
70730;BME280;58315;53.336;55.932;2022-12-13T06:03:42;101742.47;;;-7.54;44.13
70730;BME280;58315;53.336;55.932;2022-12-13T06:06:09;101744.44;;;-7.39;43.93
70730;BME280;58315;53.336;55.932;2022-12-13T06:08:36;101751.94;;;-7.50;43.63
70730;BME280;58315;53.336;55.932;2022-12-13T06:11:03;101754.66;;;-7.42;43.97
70730;BME280;58315;53.336;55.932;2022-12-13T06:13:30;101761.72;;;-7.31;43.81
70730;BME280;58315;53.336;55.932;2022-12-13T06:16:01;101754.22;;;-7.18;43.38
70730;BME280;58315;53.336;55.932;2022-12-13T06:18:29;101747.38;;;-7.18;43.28
70730;BME280;58315;53.336;55.932;2022-12-13T06:20:57;101750.75;;;-7.20;43.36
70730;BME280;58315;53.336;55.932;2022-12-13T06:23:23;101750.91;;;-7.11;43.67
70730;BME280;58315;53.336;55.932;2022-12-13T06:25:49;101762.19;;;-7.03;43.45
70730;BME280;58315;53.336;55.932;2022-12-13T06:28:15;101763.09;;;-7.01;43.30
70730;BME280;58315;53.336;55.932;2022-12-13T06:30:42;101759.53;;;-7.08;43.56
70730;BME280;58315;53.336;55.932;2022-12-13T06:33:08;101766.69;;;-6.88;43.63
70730;BME280;58315;53.336;55.932;2022-12-13T06:35:35;101759.09;;;-6.82;43.54
70730;BME280;58315;53.336;55.932;2022-12-13T06:38:01;101765.88;;;-6.87;43.23
70730;BME280;58315;53.336;55.932;2022-12-13T06:40:28;101766.94;;;-6.73;43.38
70730;BME280;58315;53.336;55.932;2022-12-13T06:42:54;101759.28;;;-6.70;43.46
70730;BME280;58315;53.336;55.932;2022-12-13T06:45:20;101758.63;;;-6.57;43.14
70730;BME280;58315;53.336;55.932;2022-12-13T06:47:46;101763.75;;;-6.57;43.17
70730;BME280;58315;53.336;55.932;2022-12-13T06:50:12;101764.34;;;-6.74;43.14
70730;BME280;58315;53.336;55.932;2022-12-13T06:52:38;101763.38;;;-6.83;43.34
70730;BME280;58315;53.336;55.932;2022-12-13T06:55:05;101768.81;;;-6.64;43.37
70730;BME280;58315;53.336;55.932;2022-12-13T06:57:32;101769.03;;;-6.47;42.98
70730;BME280;58315;53.336;55.932;2022-12-13T06:59:59;101763.22;;;-6.36;42.98
70730;BME280;58315;53.336;55.932;2022-12-13T07:02:25;101763.31;;;-6.26;42.84
70730;BME280;58315;53.336;55.932;2022-12-13T07:04:52;101768.66;;;-6.11;42.49
70730;BME280;58315;53.336;55.932;2022-12-13T07:07:18;101773.09;;;-6.02;42.63
70730;BME280;58315;53.336;55.932;2022-12-13T07:09:44;101772.31;;;-5.95;42.03
70730;BME280;58315;53.336;55.932;2022-12-13T07:12:10;101767.13;;;-5.98;42.11
70730;BME280;58315;53.336;55.932;2022-12-13T07:14:36;101764.59;;;-5.95;42.47
70730;BME280;58315;53.336;55.932;2022-12-13T07:17:01;101769.75;;;-5.94;42.37
70730;BME280;58315;53.336;55.932;2022-12-13T07:19:28;101762.78;;;-6.01;42.57
70730;BME280;58315;53.336;55.932;2022-12-13T07:21:54;101769.75;;;-5.89;42.21
70730;BME280;58315;53.336;55.932;2022-12-13T07:24:20;101768.16;;;-5.81;42.36
70730;BME280;58315;53.336;55.932;2022-12-13T07:26:45;101761.38;;;-5.73;42.47
70730;BME280;58315;53.336;55.932;2022-12-13T07:29:11;101752.75;;;-5.75;42.05
70730;BME280;58315;53.336;55.932;2022-12-13T07:31:37;101750.16;;;-5.78;42.17
70730;BME280;58315;53.336;55.932;2022-12-13T07:34:03;101752.72;;;-5.81;42.23
70730;BME280;58315;53.336;55.932;2022-12-13T07:36:29;101746.78;;;-5.74;42.56
70730;BME280;58315;53.336;55.932;2022-12-13T07:38:56;101752.06;;;-5.62;42.42
70730;BME280;58315;53.336;55.932;2022-12-13T07:41:24;101747.78;;;-5.60;42.20
70730;BME280;58315;53.336;55.932;2022-12-13T07:43:54;101740.03;;;-5.63;42.44
70730;BME280;58315;53.336;55.932;2022-12-13T07:46:20;101739.88;;;-5.75;42.39
70730;BME280;58315;53.336;55.932;2022-12-13T07:48:46;101739.16;;;-5.63;42.64
70730;BME280;58315;53.336;55.932;2022-12-13T07:51:12;101745.94;;;-5.73;42.80
70730;BME280;58315;53.336;55.932;2022-12-13T07:53:39;101753.69;;;-5.70;43.17
70730;BME280;58315;53.336;55.932;2022-12-13T07:56:09;101749.53;;;-5.59;42.78
70730;BME280;58315;53.336;55.932;2022-12-13T07:58:37;101749.47;;;-5.62;42.94
70730;BME280;58315;53.336;55.932;2022-12-13T08:01:05;101750.38;;;-5.58;42.68
70730;BME280;58315;53.336;55.932;2022-12-13T08:03:33;101753.00;;;-5.55;42.90
70730;BME280;58315;53.336;55.932;2022-12-13T08:06:09;101758.22;;;-5.47;42.93
70730;BME280;58315;53.336;55.932;2022-12-13T08:08:36;101759.06;;;-5.47;42.27
70730;BME280;58315;53.336;55.932;2022-12-13T08:11:07;101754.94;;;-5.32;42.69
70730;BME280;58315;53.336;55.932;2022-12-13T08:13:34;101754.03;;;-5.36;42.68
70730;BME280;58315;53.336;55.932;2022-12-13T08:16:03;101760.94;;;-5.30;42.59
70730;BME280;58315;53.336;55.932;2022-12-13T08:18:31;101757.50;;;-5.31;42.40
70730;BME280;58315;53.336;55.932;2022-12-13T08:21:03;101763.59;;;-5.24;42.47
70730;BME280;58315;53.336;55.932;2022-12-13T08:23:30;101766.88;;;-5.38;42.28
70730;BME280;58315;53.336;55.932;2022-12-13T08:25:58;101773.75;;;-5.40;42.51
70730;BME280;58315;53.336;55.932;2022-12-13T08:28:25;101770.28;;;-5.43;43.09
70730;BME280;58315;53.336;55.932;2022-12-13T08:30:51;101760.94;;;-5.30;42.46
70730;BME280;58315;53.336;55.932;2022-12-13T08:33:17;101759.31;;;-5.19;42.62
70730;BME280;58315;53.336;55.932;2022-12-13T08:35:47;101758.53;;;-5.15;42.94
70730;BME280;58315;53.336;55.932;2022-12-13T08:38:13;101761.94;;;-5.16;42.56
70730;BME280;58315;53.336;55.932;2022-12-13T08:40:39;101767.13;;;-5.13;42.40
70730;BME280;58315;53.336;55.932;2022-12-13T08:43:06;101768.84;;;-5.15;42.44
70730;BME280;58315;53.336;55.932;2022-12-13T08:45:32;101767.09;;;-5.16;42.22
70730;BME280;58315;53.336;55.932;2022-12-13T08:47:59;101767.16;;;-5.12;42.48
70730;BME280;58315;53.336;55.932;2022-12-13T08:50:27;101761.09;;;-5.12;42.45
70730;BME280;58315;53.336;55.932;2022-12-13T08:52:53;101760.31;;;-5.08;42.77
70730;BME280;58315;53.336;55.932;2022-12-13T08:55:19;101767.19;;;-5.07;42.82
70730;BME280;58315;53.336;55.932;2022-12-13T08:57:45;101767.22;;;-5.04;42.69
70730;BME280;58315;53.336;55.932;2022-12-13T09:00:16;101761.25;;;-4.97;42.62
70730;BME280;58315;53.336;55.932;2022-12-13T09:02:42;101757.78;;;-5.00;42.43
70730;BME280;58315;53.336;55.932;2022-12-13T09:05:09;101768.97;;;-5.00;42.25
70730;BME280;58315;53.336;55.932;2022-12-13T09:07:36;101767.25;;;-5.01;42.31
70730;BME280;58315;53.336;55.932;2022-12-13T09:10:04;101759.44;;;-5.05;41.82
70730;BME280;58315;53.336;55.932;2022-12-13T09:12:30;101767.19;;;-5.07;42.51
70730;BME280;58315;53.336;55.932;2022-12-13T09:14:57;101771.44;;;-5.11;42.36
70730;BME280;58315;53.336;55.932;2022-12-13T09:17:23;101773.22;;;-5.08;42.59
70730;BME280;58315;53.336;55.932;2022-12-13T09:19:49;101768.06;;;-5.08;42.62
70730;BME280;58315;53.336;55.932;2022-12-13T09:22:15;101770.63;;;-5.06;42.54
70730;BME280;58315;53.336;55.932;2022-12-13T09:24:41;101765.47;;;-5.08;42.23
70730;BME280;58315;53.336;55.932;2022-12-13T09:27:07;101763.75;;;-5.06;42.40
70730;BME280;58315;53.336;55.932;2022-12-13T09:29:34;101771.56;;;-4.95;42.24
70730;BME280;58315;53.336;55.932;2022-12-13T09:32:00;101763.84;;;-4.97;42.31
70730;BME280;58315;53.336;55.932;2022-12-13T09:34:27;101766.41;;;-4.94;42.10
70730;BME280;58315;53.336;55.932;2022-12-13T09:36:52;101774.19;;;-4.92;41.68
70730;BME280;58315;53.336;55.932;2022-12-13T09:39:18;101774.22;;;-4.88;42.14
70730;BME280;58315;53.336;55.932;2022-12-13T09:42:08;101774.34;;;-4.71;42.01
70730;BME280;58315;53.336;55.932;2022-12-13T09:44:43;101776.97;;;-4.66;42.02
70730;BME280;58315;53.336;55.932;2022-12-13T09:47:27;101779.47;;;-4.72;42.15
70730;BME280;58315;53.336;55.932;2022-12-13T09:49:54;101780.28;;;-4.81;41.73
70730;BME280;58315;53.336;55.932;2022-12-13T09:52:22;101784.59;;;-4.81;41.82
70730;BME280;58315;53.336;55.932;2022-12-13T09:54:52;101782.78;;;-4.92;42.08
70730;BME280;58315;53.336;55.932;2022-12-13T09:57:29;101788.88;;;-4.82;41.95
70730;BME280;58315;53.336;55.932;2022-12-13T09:59:56;101775.00;;;-4.99;41.74
70730;BME280;58315;53.336;55.932;2022-12-13T10:02:26;101790.53;;;-4.87;42.29
70730;BME280;58315;53.336;55.932;2022-12-13T10:07:42;101779.31;;;-4.97;42.20
70730;BME280;58315;53.336;55.932;2022-12-13T10:10:10;101779.34;;;-4.91;42.16
70730;BME280;58315;53.336;55.932;2022-12-13T10:12:41;101784.66;;;-4.74;42.58
70730;BME280;58315;53.336;55.932;2022-12-13T10:15:09;101787.28;;;-4.65;42.89
70730;BME280;58315;53.336;55.932;2022-12-13T10:17:39;101789.06;;;-4.59;42.13
70730;BME280;58315;53.336;55.932;2022-12-13T10:20:20;101784.81;;;-4.46;41.83
70730;BME280;58315;53.336;55.932;2022-12-13T10:22:47;101789.09;;;-4.56;41.76
70730;BME280;58315;53.336;55.932;2022-12-13T10:25:14;101781.31;;;-4.59;42.09
70730;BME280;58315;53.336;55.932;2022-12-13T10:27:43;101788.22;;;-4.56;41.85
70730;BME280;58315;53.336;55.932;2022-12-13T10:30:17;101778.66;;;-4.70;42.09
70730;BME280;58315;53.336;55.932;2022-12-13T10:37:47;101781.06;;;-4.93;42.46
70730;BME280;58315;53.336;55.932;2022-12-13T10:40:33;101776.84;;;-4.80;42.18
70730;BME280;58315;53.336;55.932;2022-12-13T10:43:15;101779.41;;;-4.83;42.41
70730;BME280;58315;53.336;55.932;2022-12-13T10:45:59;101775.94;;;-4.90;42.14
70730;BME280;58315;53.336;55.932;2022-12-13T10:51:16;101766.38;;;-5.00;42.72
70730;BME280;58315;53.336;55.932;2022-12-13T10:53:52;101764.66;;;-4.99;41.98
70730;BME280;58315;53.336;55.932;2022-12-13T10:56:20;101768.94;;;-5.04;42.33
70730;BME280;58315;53.336;55.932;2022-12-13T10:58:49;101765.47;;;-5.05;42.17
70730;BME280;58315;53.336;55.932;2022-12-13T11:06:27;101759.50;;;-4.98;42.45
70730;BME280;58315;53.336;55.932;2022-12-13T11:08:53;101756.03;;;-5.01;42.16
70730;BME280;58315;53.336;55.932;2022-12-13T11:11:28;101756.13;;;-4.91;42.46
70730;BME280;58315;53.336;55.932;2022-12-13T11:13:58;101756.88;;;-5.07;42.40
70730;BME280;58315;53.336;55.932;2022-12-13T11:16:33;101755.16;;;-5.05;42.57
70730;BME280;58315;53.336;55.932;2022-12-13T11:19:07;101758.59;;;-5.06;42.65
70730;BME280;58315;53.336;55.932;2022-12-13T11:21:45;101760.22;;;-5.16;42.47
70730;BME280;58315;53.336;55.932;2022-12-13T11:24:20;101759.25;;;-5.30;42.88
70730;BME280;58315;53.336;55.932;2022-12-13T11:26:48;101757.53;;;-5.28;42.74
70730;BME280;58315;53.336;55.932;2022-12-13T11:29:49;101754.09;;;-5.30;42.47
70730;BME280;58315;53.336;55.932;2022-12-13T11:32:22;101737.69;;;-5.40;43.03
70730;BME280;58315;53.336;55.932;2022-12-13T11:35:16;101748.00;;;-5.40;42.66
70730;BME280;58315;53.336;55.932;2022-12-13T11:38:06;101753.22;;;-5.30;42.65
70730;BME280;58315;53.336;55.932;2022-12-13T11:40:49;101738.59;;;-5.31;42.89
70730;BME280;58315;53.336;55.932;2022-12-13T11:43:38;101748.88;;;-5.36;42.86
70730;BME280;58315;53.336;55.932;2022-12-13T11:46:28;101751.34;;;-5.47;42.90
70730;BME280;58315;53.336;55.932;2022-12-13T11:49:02;101752.13;;;-5.55;42.88
70730;BME280;58315;53.336;55.932;2022-12-13T11:51:41;101752.16;;;-5.49;42.61
70730;BME280;58315;53.336;55.932;2022-12-13T11:54:48;101744.34;;;-5.60;43.23
70730;BME280;58315;53.336;55.932;2022-12-13T11:59:59;101742.41;;;-5.78;42.94
70730;BME280;58315;53.336;55.932;2022-12-13T12:02:34;101749.31;;;-5.77;43.05
70730;BME280;58315;53.336;55.932;2022-12-13T12:05:13;101754.44;;;-5.78;43.21
70730;BME280;58315;53.336;55.932;2022-12-13T12:07:48;101747.47;;;-5.87;43.46
70730;BME280;58315;53.336;55.932;2022-12-13T12:10:26;101751.78;;;-5.88;43.36
70730;BME280;58315;53.336;55.932;2022-12-13T12:13:18;101755.28;;;-5.79;43.22
70730;BME280;58315;53.336;55.932;2022-12-13T12:18:32;101748.28;;;-5.91;43.53
70730;BME280;58315;53.336;55.932;2022-12-13T12:24:03;101744.09;;;-5.83;43.35
70730;BME280;58315;53.336;55.932;2022-12-13T12:26:34;101750.88;;;-5.96;43.39
70730;BME280;58315;53.336;55.932;2022-12-13T12:29:14;101750.88;;;-5.96;43.27
70730;BME280;58315;53.336;55.932;2022-12-13T12:42:56;101754.16;;;-6.06;43.10
70730;BME280;58315;53.336;55.932;2022-12-13T12:45:47;101760.13;;;-6.09;43.15
70730;BME280;58315;53.336;55.932;2022-12-13T12:51:23;101740.81;;;-6.43;44.18
70730;BME280;58315;53.336;55.932;2022-12-13T12:54:06;101739.22;;;-6.33;44.03
70730;BME280;58315;53.336;55.932;2022-12-13T12:57:27;101745.34;;;-6.22;43.96
70730;BME280;58315;53.336;55.932;2022-12-13T13:02:05;101739.16;;;-6.38;43.69
70730;BME280;58315;53.336;55.932;2022-12-13T13:04:41;101739.22;;;-6.33;43.83
70730;BME280;58315;53.336;55.932;2022-12-13T13:07:17;101736.72;;;-6.28;43.81
70730;BME280;58315;53.336;55.932;2022-12-13T13:09:45;101736.53;;;-6.42;43.90
70730;BME280;58315;53.336;55.932;2022-12-13T13:12:12;101741.69;;;-6.42;43.96
70730;BME280;58315;53.336;55.932;2022-12-13T13:14:39;101733.16;;;-6.37;43.52
70730;BME280;58315;53.336;55.932;2022-12-13T13:22:29;101729.91;;;-6.22;43.79
70730;BME280;58315;53.336;55.932;2022-12-13T13:25:13;101727.34;;;-6.23;43.54
70730;BME280;58315;53.336;55.932;2022-12-13T13:27:44;101727.25;;;-6.31;43.74
70730;BME280;58315;53.336;55.932;2022-12-13T13:30:22;101722.09;;;-6.29;43.61
70730;BME280;58315;53.336;55.932;2022-12-13T13:32:53;101721.09;;;-6.41;44.17
70730;BME280;58315;53.336;55.932;2022-12-13T13:38:04;101728.63;;;-6.55;43.97
70730;BME280;58315;53.336;55.932;2022-12-13T13:40:49;101719.91;;;-6.67;44.25
70730;BME280;58315;53.336;55.932;2022-12-13T13:43:16;101727.56;;;-6.70;44.56
70730;BME280;58315;53.336;55.932;2022-12-13T13:45:58;101722.53;;;-6.63;44.53
70730;BME280;58315;53.336;55.932;2022-12-13T13:54:11;101709.34;;;-6.84;44.59
70730;BME280;58315;53.336;55.932;2022-12-13T14:05:45;101714.03;;;-7.15;44.75
70730;BME280;58315;53.336;55.932;2022-12-13T14:14:56;101720.81;;;-7.18;45.09
70730;BME280;58315;53.336;55.932;2022-12-13T14:28:54;101716.41;;;-7.25;45.06
70730;BME280;58315;53.336;55.932;2022-12-13T14:31:35;101724.28;;;-7.16;44.82
70730;BME280;58315;53.336;55.932;2022-12-13T14:34:03;101718.16;;;-7.24;44.75
70730;BME280;58315;53.336;55.932;2022-12-13T14:36:31;101713.00;;;-7.24;44.95
70730;BME280;58315;53.336;55.932;2022-12-13T14:39:05;101724.97;;;-7.26;45.17
70730;BME280;58315;53.336;55.932;2022-12-13T14:41:31;101714.41;;;-7.45;45.20